Details From ZGGG - BAIYUN INTL
To VDPP - Phnom Penh Intl
Flight Number -
Tags generated
Created
Modified
Stats Distance 942 nm / 1,744 km
Max Altitude 34,000 ft / 10,363 m
Waypoints 13
Social Downloads 3
Likes 0
Share VATSIM

Download

Looking for another format? Having issues loading an existing format? Contact us
Advertisement - Login to hide

Notes

Basic altitude profile: - Ascent Rate: 2500ft/min - Ascent Speed: 250kts - Cruise Altitude: 35000ft - Cruise Speed: 420kts - Descent Rate: 1500ft/min - Descent Speed: 250kts

Route

ZGGG CH A1 PAPRA R575 VIBUN B329 PNH VDPP

ID Type Via Altitude Latitude Longitude Leg Dist Tot Dist Heading (true) Name
O ZGGG APT - 0 ft / 0 m 23.39244˚ 113.29879˚ - 0 nm - BAIYUN INTL
CH VOR - 29,000 ft / 8,839 m 22.21954˚ 114.03006˚ 81 nm 81 nm 150° / 150° CHEUNG CHAU VOR-DME
DAGON FIX A1 (AWY-HI) 34,000 ft / 10,363 m 19.08833˚ 111.86500˚ 223 nm 305 nm 213° / 213° -
CAVOI FIX A1 (AWY-HI) 34,000 ft / 10,363 m 17.22500˚ 110.00000˚ 154 nm 459 nm 224° / 223° -
BUNTA FIX A1 (AWY-HI) 34,000 ft / 10,363 m 16.83333˚ 109.39500˚ 41 nm 501 nm 236° / 236° -
KANGU FIX A1 (AWY-HI) 34,000 ft / 10,363 m 16.35417˚ 108.66472˚ 50 nm 552 nm 236° / 235° -
DAN VOR A1 (AWY-HI) 34,000 ft / 10,363 m 16.05276˚ 108.19823˚ 32 nm 584 nm 236° / 236° DANANG VOR-DME
TANNA FIX A1 (AWY-HI) 34,000 ft / 10,363 m 15.90333˚ 107.65889˚ 32 nm 617 nm 254° / 254° -
PAPRA FIX A1 (AWY-HI) 34,000 ft / 10,363 m 15.76667˚ 107.18333˚ 28 nm 646 nm 253° / 253° -
LAVAN FIX R575 (AWY-HI) 34,000 ft / 10,363 m 14.14217˚ 105.73000˚ 128 nm 775 nm 221° / 221° -
VIBUN FIX R575 (AWY-HI) 28,900 ft / 8,809 m 13.79667˚ 105.43167˚ 27 nm 802 nm 220° / 220° -
PNH VOR B329 (AWY-LO) 10,000 ft / 3,048 m 11.54667˚ 104.84167˚ 139 nm 941 nm 194° / 194° PHNOM PENH VOR-DME
O VDPP APT - 0 ft / 0 m 11.54654˚ 104.84414˚ 0 nm 941 nm 93° / 93° Phnom Penh Intl

Altitude Profile

Advertisement - Login to hide

Weather


0- 5 10 15 20 25 30 35+ Temperature / ° C

Clouds and Precipitation
Forecast for 2017-12-16 18:00 UTC. Updated 2 hours ago

Ground ~20,000 ft ~40,000 ft Winds

ZGGG

Details ICAO ZGGG (CAN)
Name BAIYUN INTL
Region China
Timezone Asia/Shanghai (UTC+8.0)
Stats Elevation 50 ft / 15 m (AMSL)
Location 23.392439° 113.298788°
Runways 2
Magnetic Variation 2.904° W

METAR

ZGGG 161700Z 02007MPS 9999 OVC040 11/03 Q1029 NOSIG

Decode

TAF

TAF AMD TAF AMD ZGGG 161356Z 1612/1712 01008G14MPS 8000 BKN030 TX14/1707Z TN08/1622Z

Decode

Departure Runways

ID Width Length Bearing (true) Bearing (mag) Surface Threshold Offset Overrun Length
02L 148 ft / 45 m 11,891 ft / 3,624 m 13.86° 16.76° Concrete 0 ft / 0 m 375 ft / 114 m
02R 197 ft / 60 m 12,554 ft / 3,827 m 13.90° 16.80° Concrete 0 ft / 0 m 380 ft / 116 m
20L 197 ft / 60 m 12,554 ft / 3,827 m 193.90° 196.80° Concrete 670 ft / 204 m 375 ft / 114 m
20R 148 ft / 45 m 11,891 ft / 3,624 m 193.86° 196.76° Concrete 0 ft / 0 m 385 ft / 117 m

VDPP

Details ICAO VDPP (PNH)
Name Phnom Penh Intl
Region Cambodia
Timezone Asia/Phnom_Penh (UTC+7.0)
Stats Elevation 40 ft / 12 m (AMSL)
Location 11.546542° 104.844142°
Runways 1
Magnetic Variation 0.493° W

METAR

VDPP 161700Z 054010KT 9999 FEW017 26/19 Q1013

Decode

TAF

TAF VDPP 161100Z 1612/1706 04010KT 9999 FEW017= TAF VDSR 161100Z 1612/1706 02013KT 9999 FEW017

Decode

Destination Runways

ID Width Length Bearing (true) Bearing (mag) Surface Threshold Offset Overrun Length
05 144 ft / 44 m 9,815 ft / 2,992 m 45.61° 46.10° Asphalt 400 ft / 122 m 0 ft / 0 m
23 144 ft / 44 m 9,815 ft / 2,992 m 225.61° 226.10° Asphalt 492 ft / 150 m 0 ft / 0 m

Approach Navaids

Runway Type Ident Frequency Range Bearing (true) Bearing (mag) Slope Elevation
23 Localiser IPNP 109.70 MHz 18 nm / 33 km 225.62° 226.11° - 40 ft / 12 m (AMSL)
23 Glidescope IPNP 109.70 MHz 10 nm / 19 km 225.61° 226.10° 3.00° 37 ft / 11 m (AMSL)